Buchanan, TN

9:37 PM CST on January 29, 2015 (GMT -0600)
APRSWXNET Paris TN US | Change Station
CLOSE
Current Station
Personal Weather Station
Location: Paris, TN
Elevation: 508 ft
Nearby Weather Stations

Elev 508 ft 36.31 °N, 88.34 °W | Updated 46 minutes ago

Overcast
Overcast
42 °F
Feels Like 42 °F
N
0
Wind Variable Wind from North
Gusts 4.0 mph

Today
High -- | Low -- °F
--% Chance of Precip.
Yesterday
High -- | Low -- °F
Precip. -- in
6:57 AM 5:16 PM
Waxing Gibbous, 79% visible
Pressure 30.34 in
Visibility 10.0 miles
Clouds Overcast 3100 ft
Windchill 42 °F
Dew Point 34 °F
Humidity 72%
Rainfall 0.00 in
Snow Depth Not available.
UV 0 out of 12
Pollen 2.90 out of 12
Air Quality Not available.
Flu Activity Not available.
METAR KCEY 300315Z AUTO 33011KT 10SM OVC031 05/00 A3034 RMK AO1

More Conditions Fewer Conditions

Pressure 30.34 in
Visibility 10.0 miles
Clouds Overcast 3100 ft
Windchill 42 °F
Dew Point 34 °F
Humidity 72%
Rainfall 0.00 in
Snow Depth Not available.
UV 0 out of 12
Pollen 2.90 out of 12
Air Quality Not available.
Flu Activity Not available.
METAR KCEY 300315Z AUTO 33011KT 10SM OVC031 05/00 A3034 RMK AO1

More Conditions Fewer Conditions

10-Day Weather Forecast

Almanac

Astronomy

Jan. 29, 2015 Rise Set
Actual Time
Civil Twilight
Nautical Twilight
Astronomical Twilight
Moon
Length of Visible Light
Length of Day
Tomorrow will be .
, % of the Moon is Illuminated

Today's Extremes

State Highs State Lows

Community

WunderPhotos

Upload Photos

1,791,705 photos uploaded!

WunderBlogs® & News

Nearby

Air Quality

  Air Quality AQ Index Pollutant
Not available.

Snow Depth

Station Depth Elevation

Earthquake Activity

City Distance Mag. Time & Date
Minimum magnitude displayed is 2.5.

Coastal Water Temperatures

Place Temperature

Nearby Weather Stations